Terminal Aerodrome Forecast
Issued by NWS Buffalo, NY

Home | Current Version | Previous Version | Text Only | Print | Product List | Glossary On
Versions: 1 2 3 4 5 6 7 8 9 10 11 12 13 14 15 16 17 18 19 20 21 22 23 24 25 26 27
000
FTUS41 KBUF 211301 AAC
TAFROC
TAF AMD
KROC 211301Z 2113/2212 25003KT 1/4SM -DZ FG OVC001
     FM211500 21004KT 1SM BR OVC003
     FM211700 10004KT 4SM BR BKN015
     FM211900 11005KT P6SM BKN035
     FM220200 12004KT P6SM OVC030
     FM220600 18004KT 2SM -DZ BR OVC015=

USA.gov is the U.S. government's official web portal to all federal, state and local government web resources and services.